createdAt,value
2018-08-22T00:01:21.357Z,101837.97
2018-08-22T00:03:48.355Z,101836.00
2018-08-22T00:06:15.265Z,101831.25
2018-08-22T00:08:42.558Z,101835.30
2018-08-22T00:11:09.510Z,101834.32
2018-08-22T00:13:36.469Z,101798.55
2018-08-22T00:16:03.466Z,101819.98
2018-08-22T00:18:30.405Z,101826.02
2018-08-22T00:20:57.367Z,101833.37
2018-08-22T00:23:24.284Z,101834.28
2018-08-22T00:25:51.237Z,101839.75
2018-08-22T00:28:18.137Z,101832.88
2018-08-22T00:30:45.083Z,101831.49
2018-08-22T00:33:12.017Z,101833.27
2018-08-22T00:35:38.970Z,101834.56
2018-08-22T00:38:05.903Z,101828.88
2018-08-22T00:40:32.831Z,101830.50
2018-08-22T00:42:59.787Z,101834.06
2018-08-22T00:45:26.718Z,101833.26
2018-08-22T00:47:53.932Z,101833.44
2018-08-22T00:50:20.850Z,101828.60
2018-08-22T00:52:47.820Z,101829.63
2018-08-22T00:55:14.896Z,101830.87
2018-08-22T00:57:48.526Z,101826.16
2018-08-22T01:00:15.472Z,101827.18
2018-08-22T01:02:42.369Z,101823.50
2018-08-22T01:05:09.288Z,101816.66
2018-08-22T01:07:36.221Z,101823.14
2018-08-22T01:10:03.529Z,101828.08
2018-08-22T01:12:30.465Z,101823.63
2018-08-22T01:14:57.404Z,101829.54
2018-08-22T01:17:24.337Z,101830.66
2018-08-22T01:19:51.293Z,101830.66
2018-08-22T01:22:18.217Z,101827.23
2018-08-22T01:24:45.186Z,101824.66
2018-08-22T01:27:18.000Z,101825.27
2018-08-22T01:29:44.909Z,101817.64
2018-08-22T01:32:11.912Z,101822.17
2018-08-22T01:34:38.822Z,101822.61
2018-08-22T01:37:05.794Z,101814.22
2018-08-22T01:39:32.701Z,101819.46
2018-08-22T01:41:59.630Z,101816.44
2018-08-22T01:44:26.545Z,101810.36
2018-08-22T01:46:53.497Z,101809.64
2018-08-22T01:49:20.436Z,101811.94
2018-08-22T01:51:47.347Z,101803.16
2018-08-22T01:54:14.279Z,101811.58
2018-08-22T01:56:41.237Z,101806.70
2018-08-22T01:59:08.145Z,101806.03
2018-08-22T02:01:35.092Z,101806.51
2018-08-22T02:04:02.180Z,101795.90
2018-08-22T02:06:29.117Z,101802.33
2018-08-22T02:08:56.056Z,101803.21
2018-08-22T02:11:23.006Z,101798.05
2018-08-22T02:13:49.928Z,101793.66
2018-08-22T02:16:16.889Z,101796.84
2018-08-22T02:18:43.810Z,101783.30
2018-08-22T02:21:10.775Z,101796.05
2018-08-22T02:23:37.705Z,101793.94
2018-08-22T02:26:04.666Z,101780.77
2018-08-22T02:28:31.692Z,101790.97
2018-08-22T02:30:58.649Z,101786.53
2018-08-22T02:33:25.576Z,101785.84
2018-08-22T02:35:52.484Z,101783.59
2018-08-22T02:38:23.289Z,101781.05
2018-08-22T02:40:50.270Z,101777.94
2018-08-22T02:43:17.298Z,101774.11
2018-08-22T02:45:44.200Z,101774.55
2018-08-22T02:48:11.148Z,101772.37
2018-08-22T02:50:38.105Z,101775.44
2018-08-22T02:53:05.036Z,101772.53
2018-08-22T02:55:31.969Z,101773.86
2018-08-22T02:57:58.908Z,101773.91
2018-08-22T03:00:25.838Z,101772.98
2018-08-22T03:02:52.760Z,101770.80
2018-08-22T03:05:19.689Z,101769.03
2018-08-22T03:07:46.670Z,101773.09
2018-08-22T03:10:13.601Z,101773.47
2018-08-22T03:12:40.527Z,101768.70
2018-08-22T03:15:07.461Z,101763.94
2018-08-22T03:17:34.418Z,101767.86
2018-08-22T03:20:01.356Z,101767.09
2018-08-22T03:22:28.321Z,101760.40
2018-08-22T03:24:55.254Z,101765.16
2018-08-22T03:27:22.200Z,101767.97
2018-08-22T03:29:49.140Z,101763.21
2018-08-22T03:32:22.846Z,101762.77
2018-08-22T03:34:49.813Z,101761.19
2018-08-22T03:37:16.794Z,101757.59
2018-08-22T03:39:43.721Z,101763.80
2018-08-22T03:42:10.664Z,101764.62
2018-08-22T03:44:37.592Z,101756.67
2018-08-22T03:47:11.306Z,101753.16
2018-08-22T03:49:38.259Z,101758.75
2018-08-22T03:52:05.227Z,101754.65
2018-08-22T03:54:32.160Z,101761.45
2018-08-22T03:56:59.137Z,101750.08
2018-08-22T03:59:26.056Z,101747.30
2018-08-22T04:01:52.996Z,101745.53
2018-08-22T04:04:19.929Z,101743.35
2018-08-22T04:06:46.871Z,101743.84
2018-08-22T04:09:13.833Z,101738.44
2018-08-22T04:11:40.845Z,101740.00
2018-08-22T04:14:07.772Z,101731.61
2018-08-22T04:16:34.676Z,101726.92
2018-08-22T04:19:01.605Z,101734.49
2018-08-22T04:21:28.533Z,101660.19
2018-08-22T04:23:55.521Z,101743.31
2018-08-22T04:26:22.436Z,101739.73
2018-08-22T04:28:49.358Z,101732.97
2018-08-22T04:31:16.278Z,101741.80
2018-08-22T04:33:43.262Z,101739.63
2018-08-22T04:36:10.184Z,101749.81
2018-08-22T04:38:37.136Z,101743.38
2018-08-22T04:41:04.280Z,101738.87
2018-08-22T04:43:31.206Z,101730.16
2018-08-22T04:45:58.103Z,101735.77
2018-08-22T04:49:29.183Z,101738.42
2018-08-22T04:51:56.104Z,101735.61
2018-08-22T04:54:23.052Z,101732.34
2018-08-22T04:56:49.975Z,101733.23
2018-08-22T04:59:16.902Z,101735.77
2018-08-22T05:01:43.820Z,101738.03
2018-08-22T05:04:10.744Z,101737.02
2018-08-22T05:06:37.639Z,101734.55
2018-08-22T05:09:05.771Z,101712.42
2018-08-22T05:11:32.695Z,101725.89
2018-08-22T05:13:59.634Z,101720.96
2018-08-22T05:16:26.544Z,101722.12
2018-08-22T05:18:53.456Z,101722.27
2018-08-22T05:21:20.365Z,101725.55
2018-08-22T05:23:47.300Z,101723.25
2018-08-22T05:26:14.222Z,101719.48
2018-08-22T05:28:41.203Z,101714.99
2018-08-22T05:31:08.090Z,101720.41
2018-08-22T05:33:35.008Z,101717.47
2018-08-22T05:36:01.932Z,101716.16
2018-08-22T05:38:28.845Z,101712.38
2018-08-22T05:43:29.628Z,101718.06
2018-08-22T05:45:56.544Z,101707.97
2018-08-22T05:48:23.448Z,101714.78
2018-08-22T05:50:50.369Z,101710.93
2018-08-22T05:53:17.304Z,101706.78
2018-08-22T05:55:44.217Z,101708.05
2018-08-22T05:58:11.150Z,101708.95
2018-08-22T06:00:38.056Z,101706.02
2018-08-22T06:03:05.012Z,101710.19
2018-08-22T06:05:31.944Z,101705.06
2018-08-22T06:07:58.868Z,101705.48
2018-08-22T06:10:25.789Z,101701.98
2018-08-22T06:12:52.709Z,101703.91
2018-08-22T06:15:19.645Z,101701.95
2018-08-22T06:17:46.566Z,101701.59
2018-08-22T06:20:13.514Z,101706.77
2018-08-22T06:22:40.427Z,101707.80
2018-08-22T06:25:07.344Z,101710.27
2018-08-22T06:27:34.362Z,101706.32
2018-08-22T06:30:01.306Z,101702.84
2018-08-22T06:32:28.232Z,101699.63
2018-08-22T06:34:55.178Z,101692.85
2018-08-22T06:37:22.086Z,101698.34
2018-08-22T06:39:55.897Z,101690.36
2018-08-22T06:42:22.813Z,101690.02
2018-08-22T06:44:49.728Z,101687.34
2018-08-22T06:47:16.675Z,101691.94
2018-08-22T06:49:43.594Z,101690.56
2018-08-22T06:52:10.527Z,101687.17
2018-08-22T06:54:37.450Z,101686.89
2018-08-22T06:57:04.407Z,101687.67
2018-08-22T06:59:31.317Z,101689.58
2018-08-22T07:01:58.249Z,101681.70
2018-08-22T07:04:25.185Z,101679.55
2018-08-22T07:06:52.120Z,101686.61
2018-08-22T07:09:19.060Z,101681.03
2018-08-22T07:11:45.987Z,101684.02
2018-08-22T07:14:13.006Z,101681.97
2018-08-22T07:16:39.852Z,101682.48
2018-08-22T07:19:06.803Z,101668.36
2018-08-22T07:21:33.757Z,101678.99
2018-08-22T07:24:00.704Z,101675.84
2018-08-22T07:26:27.619Z,101679.16
2018-08-22T07:28:54.546Z,101680.61
2018-08-22T07:31:21.444Z,101670.95
2018-08-22T07:33:48.410Z,101668.23
2018-08-22T07:36:15.340Z,101666.55
2018-08-22T07:38:42.266Z,101668.22
2018-08-22T07:41:09.213Z,101665.13
2018-08-22T07:43:36.216Z,101659.19
2018-08-22T07:46:03.164Z,101658.66
2018-08-22T07:48:30.083Z,101655.89
2018-08-22T07:50:56.986Z,101659.47
2018-08-22T07:53:23.916Z,101659.77
2018-08-22T07:55:50.819Z,101659.89
2018-08-22T07:58:17.719Z,101658.72
2018-08-22T08:00:44.628Z,101654.65
2018-08-22T08:03:11.528Z,101657.80
2018-08-22T08:05:38.462Z,101655.37
2018-08-22T08:08:05.412Z,101654.45
2018-08-22T08:10:33.576Z,101650.76
2018-08-22T08:13:00.917Z,101648.06
2018-08-22T08:15:27.881Z,101646.52
2018-08-22T08:17:55.108Z,101646.04
2018-08-22T08:20:22.381Z,101644.56
2018-08-22T08:22:49.309Z,101638.17
2018-08-22T08:25:16.244Z,101635.48
2018-08-22T08:27:43.210Z,101625.21
2018-08-22T08:30:10.164Z,101629.28
2018-08-22T08:32:37.071Z,101629.94
2018-08-22T08:35:04.252Z,101633.55
2018-08-22T08:37:31.200Z,101627.11
2018-08-22T08:39:58.113Z,101629.82
2018-08-22T08:42:25.081Z,101630.33
2018-08-22T08:44:52.000Z,101623.53
2018-08-22T08:47:18.948Z,101623.16
2018-08-22T08:49:45.888Z,101622.69
2018-08-22T08:52:12.829Z,101629.33
2018-08-22T08:54:39.844Z,101617.44
2018-08-22T08:57:06.792Z,101620.17
2018-08-22T08:59:33.683Z,101611.25
2018-08-22T09:02:00.621Z,101617.63
2018-08-22T09:04:27.557Z,101607.08
2018-08-22T09:06:54.493Z,101610.62
2018-08-22T09:09:21.424Z,101606.17
2018-08-22T09:11:54.256Z,101604.31
2018-08-22T09:14:21.296Z,101609.63
2018-08-22T09:16:48.260Z,101603.03
2018-08-22T09:19:15.185Z,101601.10
2018-08-22T09:21:42.129Z,101592.36
2018-08-22T09:24:09.103Z,101585.20
2018-08-22T09:26:36.826Z,101581.77
2018-08-22T09:29:04.245Z,101579.28
2018-08-22T09:31:31.204Z,101577.92
2018-08-22T09:33:58.116Z,101580.62
2018-08-22T09:36:25.073Z,101576.80
2018-08-22T09:38:51.989Z,101573.09
2018-08-22T09:41:18.905Z,101577.93
2018-08-22T09:43:45.844Z,101572.65
2018-08-22T09:46:12.781Z,101572.91
2018-08-22T09:48:39.710Z,101569.83
2018-08-22T09:51:06.663Z,101564.95
2018-08-22T09:53:33.601Z,101553.46
2018-08-22T09:56:00.620Z,101556.05
2018-08-22T09:58:27.553Z,101559.64
2018-08-22T10:01:00.399Z,101550.78
2018-08-22T10:03:29.380Z,101540.36
2018-08-22T10:05:56.304Z,101539.36
2018-08-22T10:08:23.247Z,101542.87
2018-08-22T10:10:50.192Z,101537.02
2018-08-22T10:13:17.121Z,101535.59
2018-08-22T10:15:44.045Z,101540.33
2018-08-22T10:18:10.997Z,101544.26
2018-08-22T10:20:37.929Z,101534.08
2018-08-22T10:23:04.882Z,101531.50
2018-08-22T10:25:31.825Z,101530.08
2018-08-22T10:27:58.759Z,101523.75
2018-08-22T10:30:25.701Z,101523.20
2018-08-22T10:32:52.714Z,101524.02
2018-08-22T10:35:19.557Z,101516.45
2018-08-22T10:37:46.489Z,101516.28
2018-08-22T10:40:13.446Z,101515.84
2018-08-22T10:42:40.371Z,101513.12
2018-08-22T10:45:07.285Z,101512.17
2018-08-22T10:47:34.225Z,101510.05
2018-08-22T10:50:01.145Z,101497.48
2018-08-22T10:52:28.072Z,101503.16
2018-08-22T10:54:55.010Z,101497.04
2018-08-22T10:57:21.953Z,101504.09
2018-08-22T10:59:48.906Z,101498.12
2018-08-22T11:02:15.881Z,101491.47
2018-08-22T11:04:42.962Z,101490.39
2018-08-22T11:07:09.897Z,101495.20
2018-08-22T11:09:36.848Z,101494.33
2018-08-22T11:12:03.876Z,101486.98
2018-08-22T11:14:30.845Z,101485.00
2018-08-22T11:16:57.780Z,101493.09
2018-08-22T11:19:24.728Z,101486.42
2018-08-22T11:22:03.369Z,101476.22
2018-08-22T11:24:41.820Z,101472.34
2018-08-22T11:27:20.408Z,101479.08
2018-08-22T11:29:58.939Z,101477.50
2018-08-22T11:32:37.285Z,101472.48
2018-08-22T11:35:03.327Z,101466.28
2018-08-22T11:37:30.250Z,101465.61
2018-08-22T11:39:57.201Z,101459.66
2018-08-22T11:42:24.133Z,101460.48
2018-08-22T11:44:51.080Z,101459.02
2018-08-22T11:47:17.976Z,101459.39
2018-08-22T11:49:44.920Z,101458.56
2018-08-22T11:52:11.841Z,101450.95
2018-08-22T11:54:38.780Z,101450.14
2018-08-22T11:57:05.746Z,101448.83
2018-08-22T11:59:32.697Z,101443.24
2018-08-22T12:01:59.661Z,101448.36
2018-08-22T12:04:26.611Z,101441.70
2018-08-22T12:06:53.573Z,101439.90
2018-08-22T12:09:20.645Z,101441.73
2018-08-22T12:11:47.565Z,101441.16
2018-08-22T12:14:14.553Z,101439.31
2018-08-22T12:16:41.568Z,101442.30
2018-08-22T12:19:09.036Z,101433.47
2018-08-22T12:21:36.088Z,101430.65
2018-08-22T12:24:03.428Z,101436.22
2018-08-22T12:26:30.339Z,101438.62
2018-08-22T12:28:57.295Z,101432.93
2018-08-22T12:31:24.206Z,101430.61
2018-08-22T12:33:51.196Z,101423.86
2018-08-22T12:36:18.131Z,101419.84
2018-08-22T12:38:45.089Z,101416.44
2018-08-22T12:41:12.028Z,101409.98
2018-08-22T12:43:38.989Z,101413.23
2018-08-22T12:46:05.944Z,101412.20
2018-08-22T12:48:32.887Z,101414.80
2018-08-22T12:50:59.822Z,101408.46
2018-08-22T12:53:26.997Z,101404.89
2018-08-22T12:55:53.941Z,101399.00
2018-08-22T12:58:20.880Z,101400.98
2018-08-22T13:00:47.824Z,101391.55
2018-08-22T13:03:14.753Z,101385.85
2018-08-22T13:05:41.696Z,101381.02
2018-08-22T13:08:08.717Z,101377.81
2018-08-22T13:10:35.651Z,101382.39
2018-08-22T13:13:02.594Z,101381.62
2018-08-22T13:15:29.541Z,101380.95
2018-08-22T13:17:56.480Z,101369.05
2018-08-22T13:20:24.231Z,101366.31
2018-08-22T13:22:51.144Z,101361.23
2018-08-22T13:25:18.079Z,101366.15
2018-08-22T13:27:45.007Z,101370.20
2018-08-22T13:30:12.558Z,101366.98
2018-08-22T13:32:39.490Z,101363.60
2018-08-22T13:35:06.526Z,101363.48
2018-08-22T13:37:33.485Z,101358.56
2018-08-22T13:40:00.425Z,101353.61
2018-08-22T13:42:27.383Z,101357.43
2018-08-22T13:44:54.331Z,101351.45
2018-08-22T13:47:21.266Z,101358.47
2018-08-22T13:49:48.226Z,101350.28
2018-08-22T13:52:15.184Z,101346.34
2018-08-22T13:54:42.188Z,101351.35
2018-08-22T13:57:09.116Z,101345.30
2018-08-22T13:59:36.066Z,101342.69
2018-08-22T14:02:03.000Z,101339.40
2018-08-22T14:04:29.942Z,101335.72
2018-08-22T14:06:56.903Z,101327.69
2018-08-22T14:09:23.835Z,101336.50
2018-08-22T14:11:50.780Z,101334.55
2018-08-22T14:14:17.720Z,101323.97
2018-08-22T14:16:44.673Z,101327.69
2018-08-22T14:19:11.596Z,101325.66
2018-08-22T14:21:38.532Z,101314.77
2018-08-22T14:24:05.518Z,101317.24
2018-08-22T14:26:32.468Z,101311.16
2018-08-22T14:28:59.414Z,101313.84
2018-08-22T14:31:26.352Z,101312.85
2018-08-22T14:34:00.037Z,101310.93
2018-08-22T14:36:27.315Z,101313.31
2018-08-22T14:38:54.418Z,101314.28
2018-08-22T14:41:21.512Z,101313.44
2018-08-22T14:43:48.461Z,101313.34
2018-08-22T14:46:15.492Z,101303.58
2018-08-22T14:48:42.438Z,101302.41
2018-08-22T14:51:09.400Z,101298.08
2018-08-22T14:53:36.345Z,101303.95
2018-08-22T14:56:03.346Z,101290.49
2018-08-22T14:58:30.232Z,101289.70
2018-08-22T15:00:57.184Z,101291.20
2018-08-22T15:03:24.843Z,101290.83
2018-08-22T15:05:51.527Z,101291.35
2018-08-22T15:08:18.459Z,101279.38
2018-08-22T15:10:45.948Z,101284.06
2018-08-22T15:13:12.902Z,101279.79
2018-08-22T15:15:39.861Z,101271.23
2018-08-22T15:18:06.814Z,101271.08
2018-08-22T15:20:33.753Z,101276.49
2018-08-22T15:23:00.681Z,101266.41
2018-08-22T15:25:27.749Z,101265.68
2018-08-22T15:27:54.681Z,101263.29
2018-08-22T15:30:21.626Z,101263.24
2018-08-22T15:32:48.569Z,101257.34
2018-08-22T15:35:15.502Z,101257.27
2018-08-22T15:37:42.447Z,101251.81
2018-08-22T15:40:09.380Z,101252.06
2018-08-22T15:42:36.352Z,101245.06
2018-08-22T15:45:03.308Z,101240.21
2018-08-22T15:47:30.300Z,101245.00
2018-08-22T15:49:57.302Z,101238.85
2018-08-22T15:52:24.300Z,101235.45
2018-08-22T15:55:05.037Z,101237.69
2018-08-22T15:57:47.360Z,101235.74
2018-08-22T16:00:51.155Z,101229.70
2018-08-22T16:03:18.400Z,101222.97
2018-08-22T16:05:46.230Z,101222.70
2018-08-22T16:08:15.038Z,101219.16
2018-08-22T16:10:42.014Z,101217.47
2018-08-22T16:13:14.324Z,101209.25
2018-08-22T16:15:41.296Z,101215.12
2018-08-22T16:18:08.745Z,101215.83
2018-08-22T16:20:41.810Z,101213.98
2018-08-22T16:23:08.753Z,101212.96
2018-08-22T16:25:41.499Z,101214.96
2018-08-22T16:28:08.527Z,101214.41
2018-08-22T16:30:35.452Z,101210.19
2018-08-22T16:33:02.375Z,101208.19
2018-08-22T16:35:29.304Z,101208.04
2018-08-22T16:38:03.613Z,101204.73
2018-08-22T16:40:34.098Z,101204.53
2018-08-22T16:43:01.293Z,101197.16
2018-08-22T16:45:28.442Z,101200.95
2018-08-22T16:47:55.385Z,101196.17
2018-08-22T16:50:23.363Z,101196.02
2018-08-22T16:52:50.407Z,101199.08
2018-08-22T16:55:19.809Z,101184.30
2018-08-22T16:57:47.557Z,101194.69
2018-08-22T17:00:14.894Z,101190.31
2018-08-22T17:02:41.892Z,101187.29
2018-08-22T17:05:08.859Z,101183.14
2018-08-22T17:07:35.848Z,101186.78
2018-08-22T17:10:03.126Z,101183.41
2018-08-22T17:12:39.509Z,101179.96
2018-08-22T17:15:06.863Z,101184.32
2018-08-22T17:17:33.841Z,101183.16
2018-08-22T17:20:00.782Z,101182.69
2018-08-22T17:22:27.730Z,101178.81
2018-08-22T17:24:54.658Z,101175.91
2018-08-22T17:27:21.637Z,101178.66
2018-08-22T17:29:48.580Z,101174.19
2018-08-22T17:32:15.537Z,101175.53
2018-08-22T17:34:42.546Z,101171.13
2018-08-22T17:37:09.582Z,101174.58
2018-08-22T17:39:36.544Z,101168.73
2018-08-22T17:42:03.489Z,101168.52
2018-08-22T17:44:30.453Z,101164.91
2018-08-22T17:46:57.415Z,101166.58
2018-08-22T17:49:24.384Z,101165.14
2018-08-22T17:52:00.124Z,101166.42
2018-08-22T17:54:27.322Z,101159.46
2018-08-22T17:57:07.503Z,101164.31
2018-08-22T17:59:34.450Z,101168.98
2018-08-22T18:02:01.405Z,101160.27
2018-08-22T18:04:38.735Z,101159.33
2018-08-22T18:07:05.652Z,101155.30
2018-08-22T18:09:32.610Z,101163.57
2018-08-22T18:11:59.517Z,101159.17
2018-08-22T18:14:26.445Z,101156.70
2018-08-22T18:16:58.041Z,101155.97
2018-08-22T18:19:25.040Z,101155.33
2018-08-22T18:21:52.051Z,101155.56
2018-08-22T18:24:19.044Z,101156.05
2018-08-22T18:26:46.052Z,101157.64
2018-08-22T18:29:13.025Z,101164.25
2018-08-22T18:31:39.957Z,101155.63
2018-08-22T18:34:06.849Z,101156.58
2018-08-22T18:36:33.815Z,101156.22
2018-08-22T18:39:04.747Z,101158.63
2018-08-22T18:41:31.652Z,101156.48
2018-08-22T18:43:58.816Z,101155.72
2018-08-22T18:46:25.822Z,101159.24
2018-08-22T18:48:52.797Z,101155.02
2018-08-22T18:51:19.705Z,101152.88
2018-08-22T18:53:46.635Z,101159.78
2018-08-22T18:56:14.997Z,101159.31
2018-08-22T18:58:41.910Z,101160.69
2018-08-22T19:01:08.839Z,101163.78
2018-08-22T19:03:36.213Z,101152.81
2018-08-22T19:06:03.156Z,101163.59
2018-08-22T19:08:30.068Z,101157.50
2018-08-22T19:10:57.043Z,101153.65
2018-08-22T19:13:24.842Z,101156.47
2018-08-22T19:15:54.139Z,101160.30
2018-08-22T19:18:21.088Z,101159.82
2018-08-22T19:20:48.472Z,101161.09
2018-08-22T19:23:15.467Z,101154.14
2018-08-22T19:25:44.919Z,101156.72
2018-08-22T19:28:11.918Z,101160.26
2018-08-22T19:30:39.104Z,101158.41
2018-08-22T19:33:09.851Z,101156.10
2018-08-22T19:35:36.792Z,101161.90
2018-08-22T19:38:04.983Z,101155.41
2018-08-22T19:40:31.996Z,101158.38
2018-08-22T19:42:59.085Z,101157.41
2018-08-22T19:45:26.024Z,101164.18
2018-08-22T19:47:52.970Z,101164.12
2018-08-22T19:50:19.877Z,101161.83
2018-08-22T19:52:46.873Z,101159.31
2018-08-22T19:55:13.790Z,101165.58
2018-08-22T19:57:42.957Z,101160.56
2018-08-22T20:00:11.054Z,101160.72
2018-08-22T20:02:38.005Z,101164.41
2018-08-22T20:05:06.056Z,101165.80
2018-08-22T20:07:33.011Z,101165.03
2018-08-22T20:10:01.479Z,101160.02
2018-08-22T20:12:39.708Z,101159.67
2018-08-22T20:15:06.638Z,101163.19
2018-08-22T20:17:33.588Z,101159.95
2018-08-22T20:20:00.515Z,101172.69
2018-08-22T20:22:48.356Z,101168.75
2018-08-22T20:25:15.314Z,101169.82
2018-08-22T20:27:42.253Z,101173.12
2018-08-22T20:30:16.412Z,101165.88
2018-08-22T20:32:55.960Z,101164.39
2018-08-22T20:35:28.947Z,101162.77
2018-08-22T20:37:57.021Z,101162.97
2018-08-22T20:40:23.975Z,101159.87
2018-08-22T20:42:50.966Z,101157.38
2018-08-22T20:45:22.497Z,101160.46
2018-08-22T20:47:54.058Z,101161.42
2018-08-22T20:50:20.969Z,101156.63
2018-08-22T20:52:49.380Z,101160.58
2018-08-22T20:55:16.317Z,101162.77
2018-08-22T20:57:43.254Z,101156.81
2018-08-22T21:00:10.216Z,101158.82
2018-08-22T21:02:37.159Z,101160.63
2018-08-22T21:05:04.122Z,101162.27
2018-08-22T21:07:36.290Z,101161.80
2018-08-22T21:10:03.247Z,101170.20
2018-08-22T21:12:30.200Z,101177.05
2018-08-22T21:14:57.123Z,101179.64
2018-08-22T21:17:24.040Z,101176.11
2018-08-22T21:19:50.990Z,101172.92
2018-08-22T21:22:27.968Z,101171.67
2018-08-22T21:24:57.353Z,101172.73
2018-08-22T21:27:24.222Z,101181.45
2018-08-22T21:29:51.168Z,101179.37
2018-08-22T21:32:18.322Z,101177.25
2018-08-22T21:34:45.236Z,101181.05
2018-08-22T21:37:25.205Z,101184.23
2018-08-22T21:39:52.130Z,101178.17
2018-08-22T21:42:24.655Z,101183.91
2018-08-22T21:44:51.587Z,101189.50
2018-08-22T21:47:18.483Z,101189.77
2018-08-22T21:49:45.396Z,101192.27
2018-08-22T21:52:12.362Z,101187.98
2018-08-22T21:54:39.333Z,101190.84
2018-08-22T21:57:06.227Z,101193.05
2018-08-22T21:59:33.160Z,101193.41
2018-08-22T22:02:07.269Z,101188.67
2018-08-22T22:04:35.473Z,101187.05
2018-08-22T22:07:03.617Z,101192.44
2018-08-22T22:09:32.353Z,101188.23
2018-08-22T22:12:00.177Z,101194.94
2018-08-22T22:14:30.214Z,101196.48
2018-08-22T22:16:57.856Z,101193.97
2018-08-22T22:19:25.637Z,101190.91
2018-08-22T22:21:52.573Z,101192.61
2018-08-22T22:24:19.509Z,101189.55
2018-08-22T22:26:46.421Z,101195.02
2018-08-22T22:29:13.371Z,101192.09
2018-08-22T22:31:40.285Z,101193.94
2018-08-22T22:34:08.915Z,101198.08
2018-08-22T22:36:35.850Z,101201.70
2018-08-22T22:39:03.472Z,101196.31
2018-08-22T22:41:30.904Z,101207.46
2018-08-22T22:43:57.855Z,101206.50
2018-08-22T22:46:24.754Z,101198.54
2018-08-22T22:48:51.709Z,101201.53
2018-08-22T22:51:18.624Z,101198.52
2018-08-22T22:53:45.533Z,101193.70
2018-08-22T22:56:12.522Z,101196.47
2018-08-22T22:58:39.437Z,101188.39
2018-08-22T23:01:06.905Z,101185.33
2018-08-22T23:03:33.991Z,101184.26
2018-08-22T23:06:01.050Z,101179.69
2018-08-22T23:08:28.149Z,101181.28
2018-08-22T23:10:55.460Z,101184.30
2018-08-22T23:13:25.396Z,101185.52
2018-08-22T23:15:52.361Z,101185.94
2018-08-22T23:18:19.417Z,101187.94
2018-08-22T23:20:46.455Z,101183.13
2018-08-22T23:23:28.673Z,101181.66
2018-08-22T23:26:00.405Z,101180.72
2018-08-22T23:28:27.320Z,101186.73
2018-08-22T23:30:54.332Z,101177.37
2018-08-22T23:33:21.236Z,101177.54
2018-08-22T23:35:48.178Z,101169.88
2018-08-22T23:38:20.809Z,101169.80
2018-08-22T23:40:48.061Z,101173.19
2018-08-22T23:43:14.964Z,101171.59
2018-08-22T23:45:47.428Z,101168.92
2018-08-22T23:48:18.964Z,101170.05
2018-08-22T23:50:54.792Z,101160.42
2018-08-22T23:53:22.416Z,101168.08
2018-08-22T23:55:49.602Z,101166.19
2018-08-22T23:58:17.033Z,101161.92
